Time;durP1;ratioP1;P1;durP2;ratioP2;P2;SDS_P1;SDS_P2;PMS_P1;PMS_P2;Temp;Humidity;BMP_temperature;BMP_pressure;BME280_temperature;BME280_humidity;BME280_pressure;Samples;Min_cycle;Max_cycle;Signal;HPM_P1;HPM_P2
2021/11/13 00:01:49;;;;;;;;;;;4.10;99.90;;;;;;5048308;28;19926;-82
2021/11/13 00:04:16;;;;;;;;;;;4.00;99.90;;;;;;5042408;28;19925;-82
2021/11/13 00:06:42;;;;;;;;;;;4.10;99.90;;;;;;5042500;28;19929;-83
2021/11/13 00:09:14;;;;;;;;;;;4.10;99.90;;;;;;5041807;28;19929;-83
2021/11/13 00:11:41;;;;;;;;;;;4.10;99.90;;;;;;5042758;28;20015;-83
2021/11/13 00:14:13;;;;;;;;;;;4.00;99.90;;;;;;5043478;28;20300;-82
2021/11/13 00:16:39;;;;;;;;;;;4.30;99.90;;;;;;5044507;28;19932;-82
2021/11/13 00:19:06;;;;;;;;;;;4.00;99.90;;;;;;5047109;28;19925;-82
2021/11/13 00:21:32;;;;;;;;;;;4.10;99.90;;;;;;5043909;28;20332;-83
2021/11/13 00:23:59;;;;;;;;;;;4.00;99.90;;;;;;5045835;28;19925;-82
2021/11/13 00:26:26;;;;;;;;;;;4.10;99.90;;;;;;5044442;28;19947;-83
2021/11/13 00:28:53;;;;;;;;;;;4.10;99.90;;;;;;5043646;28;19991;-83
2021/11/13 00:31:19;;;;;;;;;;;4.00;99.90;;;;;;5051530;28;19932;-83
2021/11/13 00:33:46;;;;;;;;;;;4.10;99.90;;;;;;5055174;28;19925;-83
2021/11/13 00:36:12;;;;;;;;;;;4.10;99.90;;;;;;5057394;28;19925;-83
2021/11/13 00:38:39;;;;;;;;;;;4.00;99.90;;;;;;5054335;28;19925;-82
2021/11/13 00:41:05;;;;;;;;;;;4.00;99.90;;;;;;5046997;28;19932;-82
2021/11/13 00:43:33;;;;;;;;;;;4.00;99.90;;;;;;5042316;28;19925;-83
2021/11/13 00:46:00;;;;;;;;;;;4.00;99.90;;;;;;5040542;28;19925;-83
2021/11/13 00:48:26;;;;;;;;;;;4.10;99.90;;;;;;5040849;28;19932;-83
2021/11/13 00:50:52;;;;;;;;;;;4.10;99.90;;;;;;5041000;28;19952;-83
2021/11/13 00:53:19;;;;;;;;;;;4.60;99.90;;;;;;5041088;28;19925;-82
2021/11/13 00:55:45;;;;;;;;;;;4.10;99.90;;;;;;5041499;28;19925;-83
2021/11/13 00:58:12;;;;;;;;;;;4.00;99.90;;;;;;5042634;28;19999;-82
2021/11/13 01:00:42;;;;;;;;;;;4.00;99.90;;;;;;5041859;28;19925;-83
2021/11/13 01:03:10;;;;;;;;;;;4.00;99.90;;;;;;5040443;28;19976;-82
2021/11/13 01:05:37;;;;;;;;;;;3.60;99.90;;;;;;5040567;28;19932;-83
2021/11/13 01:08:03;;;;;;;;;;;4.10;99.90;;;;;;5040704;28;19948;-83
2021/11/13 01:10:30;;;;;;;;;;;4.00;99.90;;;;;;5057247;28;19936;-82
2021/11/13 01:12:56;;;;;;;;;;;4.10;99.90;;;;;;5057994;28;19932;-82
2021/11/13 01:15:23;;;;;;;;;;;4.10;99.90;;;;;;5057495;28;19932;-82
2021/11/13 01:17:51;;;;;;;;;;;4.20;99.90;;;;;;5057598;28;19914;-81
2021/11/13 01:20:18;;;;;;;;;;;4.40;99.90;;;;;;5057378;28;19939;-81
2021/11/13 01:22:45;;;;;;;;;;;4.20;99.90;;;;;;5057331;28;19925;-82
2021/11/13 01:25:12;;;;;;;;;;;4.20;99.90;;;;;;5060130;28;19913;-82
2021/11/13 01:27:39;;;;;;;;;;;4.20;99.90;;;;;;5048952;28;19929;-82
2021/11/13 01:30:07;;;;;;;;;;;4.10;99.90;;;;;;5049001;28;19948;-82
2021/11/13 01:32:34;;;;;;;;;;;4.20;99.90;;;;;;5051053;28;19925;-82
2021/11/13 01:35:02;;;;;;;;;;;4.30;99.90;;;;;;5050771;28;19967;-81
2021/11/13 01:37:28;;;;;;;;;;;4.20;99.90;;;;;;5046104;28;19955;-83
2021/11/13 01:39:55;;;;;;;;;;;4.20;99.90;;;;;;5044946;28;19932;-83
2021/11/13 01:42:25;;;;;;;;;;;4.20;99.90;;;;;;5045471;28;19975;-82
2021/11/13 01:44:52;;;;;;;;;;;4.20;99.90;;;;;;5044564;28;19925;-82
2021/11/13 01:47:18;;;;;;;;;;;4.20;99.90;;;;;;5044288;28;19929;-82
2021/11/13 01:49:45;;;;;;;;;;;4.10;99.90;;;;;;5044131;28;19925;-82
2021/11/13 01:52:13;;;;;;;;;;;4.20;99.90;;;;;;5049542;28;19925;-82
2021/11/13 01:54:41;;;;;;;;;;;4.20;99.90;;;;;;5056083;28;19925;-82
2021/11/13 01:57:10;;;;;;;;;;;4.10;99.90;;;;;;5051146;28;19925;-82
2021/11/13 01:59:37;;;;;;;;;;;4.10;99.90;;;;;;5045919;28;19958;-81
2021/11/13 02:02:04;;;;;;;;;;;4.00;99.90;;;;;;5045309;28;19932;-83
2021/11/13 02:04:30;;;;;;;;;;;4.20;99.90;;;;;;5043959;28;20384;-83
2021/11/13 02:06:57;;;;;;;;;;;4.10;99.90;;;;;;5043810;28;19925;-82
2021/11/13 02:09:24;;;;;;;;;;;4.10;99.90;;;;;;5044239;28;19947;-82
2021/11/13 02:11:51;;;;;;;;;;;4.20;99.90;;;;;;5057389;28;19929;-81
2021/11/13 02:14:18;;;;;;;;;;;4.70;99.90;;;;;;5060439;28;19969;-81
2021/11/13 02:16:44;;;;;;;;;;;4.20;99.90;;;;;;5060565;28;19925;-82
2021/11/13 02:19:11;;;;;;;;;;;4.20;99.90;;;;;;5060810;28;19981;-82
2021/11/13 02:21:38;;;;;;;;;;;4.10;99.90;;;;;;5060355;28;19913;-82
2021/11/13 02:24:05;;;;;;;;;;;4.10;99.90;;;;;;5060331;28;19925;-82
2021/11/13 02:26:32;;;;;;;;;;;4.10;99.90;;;;;;5060212;28;19913;-82
2021/11/13 02:28:59;;;;;;;;;;;4.10;99.90;;;;;;5061272;28;19997;-82
2021/11/13 02:31:32;;;;;;;;;;;4.10;99.90;;;;;;5061305;28;19913;-81
2021/11/13 02:33:59;;;;;;;;;;;4.10;99.90;;;;;;5061069;28;19921;-82
2021/11/13 02:36:25;;;;;;;;;;;4.10;99.90;;;;;;5060616;28;19915;-82
2021/11/13 02:38:55;;;;;;;;;;;4.30;99.90;;;;;;5061171;28;19930;-82
2021/11/13 02:41:23;;;;;;;;;;;4.10;99.90;;;;;;5060708;28;19932;-83
2021/11/13 02:43:49;;;;;;;;;;;4.10;99.90;;;;;;5060690;28;19940;-82
2021/11/13 02:46:16;;;;;;;;;;;3.70;99.90;;;;;;5058978;28;19940;-82
2021/11/13 02:48:43;;;;;;;;;;;4.10;99.90;;;;;;5052922;28;19925;-82
2021/11/13 02:51:10;;;;;;;;;;;4.10;99.90;;;;;;5048084;28;19948;-82
2021/11/13 02:53:37;;;;;;;;;;;4.10;99.90;;;;;;5046984;28;19932;-82
2021/11/13 02:56:06;;;;;;;;;;;4.10;99.90;;;;;;5042936;28;19929;-82
2021/11/13 02:58:33;;;;;;;;;;;4.10;99.90;;;;;;5049237;28;19936;-82
2021/11/13 03:01:01;;;;;;;;;;;3.90;99.90;;;;;;5057370;28;19925;-82
2021/11/13 03:03:28;;;;;;;;;;;4.80;99.90;;;;;;5058524;28;19925;-82
2021/11/13 03:05:56;;;;;;;;;;;4.80;99.90;;;;;;5058190;28;19924;-80
2021/11/13 03:08:23;;;;;;;;;;;4.00;99.90;;;;;;5049503;28;19929;-82
2021/11/13 03:10:50;;;;;;;;;;;3.60;99.90;;;;;;5045382;28;19925;-83
2021/11/13 03:13:18;;;;;;;;;;;4.20;99.90;;;;;;5045287;28;19939;-81
2021/11/13 03:15:45;;;;;;;;;;;3.70;99.90;;;;;;5042373;28;20000;-82
2021/11/13 03:18:11;;;;;;;;;;;4.10;99.90;;;;;;5043677;28;20351;-82
2021/11/13 03:20:38;;;;;;;;;;;4.20;99.90;;;;;;5044791;28;19925;-82
2021/11/13 03:23:04;;;;;;;;;;;4.20;99.90;;;;;;5048736;28;20420;-82
2021/11/13 03:25:33;;;;;;;;;;;4.50;99.90;;;;;;5040043;28;20307;-83
2021/11/13 03:28:00;;;;;;;;;;;4.10;99.90;;;;;;5040605;28;19929;-82
2021/11/13 03:30:28;;;;;;;;;;;4.20;99.90;;;;;;5040816;28;20311;-83
2021/11/13 03:32:55;;;;;;;;;;;4.10;99.90;;;;;;5040659;28;19948;-83
2021/11/13 03:35:27;;;;;;;;;;;4.10;99.90;;;;;;5040740;28;19926;-82
2021/11/13 03:37:54;;;;;;;;;;;4.10;99.90;;;;;;5041843;28;19968;-82
2021/11/13 03:40:20;;;;;;;;;;;4.10;99.90;;;;;;5042471;28;20371;-82
2021/11/13 03:42:47;;;;;;;;;;;4.10;99.90;;;;;;5041827;28;19932;-81
2021/11/13 03:45:14;;;;;;;;;;;4.20;99.90;;;;;;5041452;28;20009;-81
2021/11/13 03:47:42;;;;;;;;;;;4.10;99.90;;;;;;5042377;28;19925;-81
2021/11/13 03:50:08;;;;;;;;;;;4.10;99.90;;;;;;5042530;28;19931;-83
2021/11/13 03:52:35;;;;;;;;;;;4.20;99.90;;;;;;5042792;28;19925;-82
2021/11/13 03:55:02;;;;;;;;;;;4.20;99.90;;;;;;5042675;28;20004;-82
2021/11/13 03:57:28;;;;;;;;;;;4.20;99.90;;;;;;5042698;28;19956;-82
2021/11/13 03:59:55;;;;;;;;;;;4.20;99.90;;;;;;5042837;28;20336;-82
2021/11/13 04:02:21;;;;;;;;;;;4.20;99.90;;;;;;5048262;28;19987;-82
2021/11/13 04:04:49;;;;;;;;;;;4.20;99.90;;;;;;5050439;28;19925;-82
2021/11/13 04:07:16;;;;;;;;;;;4.20;99.90;;;;;;5048126;28;19925;-83
2021/11/13 04:09:43;;;;;;;;;;;6.00;99.90;;;;;;5044278;28;19948;-82
2021/11/13 04:12:13;;;;;;;;;;;5.10;99.90;;;;;;5045118;28;19929;-82
2021/11/13 04:14:41;;;;;;;;;;;4.20;99.90;;;;;;5042492;28;19929;-82
2021/11/13 04:17:08;;;;;;;;;;;4.20;99.90;;;;;;5042150;28;20431;-82
2021/11/13 04:19:34;;;;;;;;;;;3.90;99.90;;;;;;5044427;28;19925;-82
2021/11/13 04:22:03;;;;;;;;;;;5.50;99.90;;;;;;5042532;28;20303;-82
2021/11/13 04:24:29;;;;;;;;;;;4.30;99.90;;;;;;5043065;28;19929;-83
2021/11/13 04:26:56;;;;;;;;;;;4.20;99.90;;;;;;5051306;28;19925;-82
2021/11/13 04:29:22;;;;;;;;;;;4.20;99.90;;;;;;5058548;28;19952;-82
2021/11/13 04:31:49;;;;;;;;;;;4.20;99.90;;;;;;5046957;28;19975;-81
2021/11/13 04:34:21;;;;;;;;;;;4.20;99.90;;;;;;5049310;28;19932;-82
2021/11/13 04:36:51;;;;;;;;;;;4.30;99.90;;;;;;5058501;28;19913;-82
2021/11/13 04:39:19;;;;;;;;;;;4.30;99.90;;;;;;5049931;28;19988;-82
2021/11/13 04:41:45;;;;;;;;;;;4.20;99.90;;;;;;5044560;28;19948;-82
2021/11/13 04:44:12;;;;;;;;;;;4.30;99.90;;;;;;5045400;28;19925;-82
2021/11/13 04:46:38;;;;;;;;;;;4.30;99.90;;;;;;5042735;28;19929;-82
2021/11/13 04:49:05;;;;;;;;;;;4.30;99.90;;;;;;5042677;28;19925;-82
2021/11/13 04:51:31;;;;;;;;;;;4.30;99.90;;;;;;5042219;28;19931;-82
2021/11/13 04:53:58;;;;;;;;;;;5.60;99.90;;;;;;5042904;28;19925;-82
2021/11/13 04:56:26;;;;;;;;;;;4.30;99.90;;;;;;5042364;28;20455;-82
2021/11/13 04:58:53;;;;;;;;;;;4.30;99.90;;;;;;5041142;28;19925;-83
2021/11/13 05:01:20;;;;;;;;;;;5.40;99.90;;;;;;5040988;28;19968;-82
2021/11/13 05:03:46;;;;;;;;;;;4.40;99.90;;;;;;5042138;28;20328;-82
2021/11/13 05:06:13;;;;;;;;;;;4.40;99.90;;;;;;5041647;28;19925;-82
2021/11/13 05:08:39;;;;;;;;;;;4.40;99.90;;;;;;5045627;28;19929;-82
2021/11/13 05:11:06;;;;;;;;;;;4.40;99.90;;;;;;5049370;28;19924;-82
2021/11/13 05:13:34;;;;;;;;;;;4.40;99.90;;;;;;5051722;28;19925;-82
2021/11/13 05:16:00;;;;;;;;;;;4.40;99.90;;;;;;5046799;28;19925;-82
2021/11/13 05:18:27;;;;;;;;;;;4.50;99.90;;;;;;5066173;22;19925;-80
2021/11/13 05:20:53;;;;;;;;;;;4.50;99.90;;;;;;5059333;28;19963;-80
2021/11/13 05:23:20;;;;;;;;;;;4.50;99.90;;;;;;5059384;28;19972;-80
2021/11/13 05:25:46;;;;;;;;;;;4.50;99.90;;;;;;5059404;28;20402;-82
2021/11/13 05:28:12;;;;;;;;;;;4.40;99.90;;;;;;5070642;28;19925;-79
2021/11/13 05:30:41;;;;;;;;;;;4.40;99.90;;;;;;5069065;28;19929;-78
2021/11/13 05:33:07;;;;;;;;;;;4.40;99.90;;;;;;5071326;28;19972;-79
2021/11/13 05:35:34;;;;;;;;;;;4.40;99.90;;;;;;5065194;28;19924;-81
2021/11/13 05:38:00;;;;;;;;;;;4.40;99.90;;;;;;5065910;28;19925;-80
2021/11/13 05:40:26;;;;;;;;;;;4.20;99.90;;;;;;5074360;28;19924;-80
2021/11/13 05:42:54;;;;;;;;;;;4.30;99.90;;;;;;5073892;28;19990;-79
2021/11/13 05:45:20;;;;;;;;;;;4.30;99.90;;;;;;5074104;28;19960;-78
2021/11/13 05:47:48;;;;;;;;;;;4.40;99.90;;;;;;5073289;28;19925;-81
2021/11/13 05:50:16;;;;;;;;;;;4.40;99.90;;;;;;5073044;28;19932;-80
2021/11/13 05:52:44;;;;;;;;;;;4.30;99.90;;;;;;5074247;28;19952;-80
2021/11/13 05:55:11;;;;;;;;;;;4.30;99.90;;;;;;5069996;28;20387;-79
2021/11/13 05:57:37;;;;;;;;;;;4.30;99.90;;;;;;5067394;28;19925;-79
2021/11/13 06:00:05;;;;;;;;;;;4.30;99.90;;;;;;5068543;28;19925;-79
2021/11/13 06:02:31;;;;;;;;;;;4.30;99.90;;;;;;5070077;28;19924;-78
2021/11/13 06:04:59;;;;;;;;;;;4.30;99.90;;;;;;5065931;28;19925;-78
2021/11/13 06:07:25;;;;;;;;;;;4.30;99.90;;;;;;5066571;28;19933;-79
2021/11/13 06:09:52;;;;;;;;;;;4.40;99.90;;;;;;5066405;28;19928;-81
2021/11/13 06:12:18;;;;;;;;;;;4.40;99.90;;;;;;5069563;28;19925;-79
2021/11/13 06:14:45;;;;;;;;;;;4.30;99.90;;;;;;5070562;28;19947;-83
2021/11/13 06:17:11;;;;;;;;;;;4.40;99.90;;;;;;5063912;28;20446;-82
2021/11/13 06:19:38;;;;;;;;;;;4.30;99.90;;;;;;5064190;28;19924;-82
2021/11/13 06:22:06;;;;;;;;;;;4.30;99.90;;;;;;5064399;28;19928;-81
2021/11/13 06:24:33;;;;;;;;;;;4.40;99.90;;;;;;5068415;28;19916;-79
2021/11/13 06:26:59;;;;;;;;;;;4.40;99.90;;;;;;5075323;28;19992;-80
2021/11/13 06:29:26;;;;;;;;;;;4.30;99.90;;;;;;5074215;28;19924;-78
2021/11/13 06:31:52;;;;;;;;;;;4.30;99.90;;;;;;5075366;28;19944;-79
2021/11/13 06:34:19;;;;;;;;;;;4.40;99.90;;;;;;5074538;28;19925;-80
2021/11/13 06:36:45;;;;;;;;;;;4.30;99.90;;;;;;5074711;28;19925;-79
2021/11/13 06:39:13;;;;;;;;;;;4.40;99.90;;;;;;5070956;28;19925;-78
2021/11/13 06:41:40;;;;;;;;;;;4.30;99.90;;;;;;5066853;28;20388;-81
2021/11/13 06:44:06;;;;;;;;;;;4.40;99.90;;;;;;5065200;28;19925;-82
2021/11/13 06:46:33;;;;;;;;;;;4.40;99.90;;;;;;5063036;28;19929;-82
2021/11/13 06:48:59;;;;;;;;;;;4.40;99.90;;;;;;5061630;28;19932;-80
2021/11/13 06:51:29;;;;;;;;;;;4.40;99.90;;;;;;5062600;28;19975;-81
2021/11/13 06:53:55;;;;;;;;;;;4.40;99.90;;;;;;5063536;28;19929;-81
2021/11/13 06:56:23;;;;;;;;;;;4.40;99.90;;;;;;5062922;28;20380;-80
2021/11/13 06:58:50;;;;;;;;;;;4.50;99.90;;;;;;5062122;28;20299;-82
2021/11/13 07:01:16;;;;;;;;;;;4.50;99.90;;;;;;5066567;28;19924;-80
2021/11/13 07:03:43;;;;;;;;;;;4.50;99.90;;;;;;5065264;28;19947;-82
2021/11/13 07:06:09;;;;;;;;;;;4.50;99.90;;;;;;5062683;28;19925;-81
2021/11/13 07:08:36;;;;;;;;;;;4.60;99.90;;;;;;5063991;28;19924;-81
2021/11/13 07:11:02;;;;;;;;;;;4.60;99.90;;;;;;5073580;28;19924;-80
2021/11/13 07:13:30;;;;;;;;;;;4.70;99.90;;;;;;5066421;28;19925;-83
2021/11/13 07:15:57;;;;;;;;;;;4.70;99.90;;;;;;5063862;28;19929;-80
2021/11/13 07:18:23;;;;;;;;;;;4.80;99.90;;;;;;5062108;28;19925;-81
2021/11/13 07:20:52;;;;;;;;;;;4.80;99.90;;;;;;5061194;28;19974;-81
2021/11/13 07:23:18;;;;;;;;;;;4.80;99.90;;;;;;5061797;28;20288;-81
2021/11/13 07:25:45;;;;;;;;;;;4.80;99.90;;;;;;5061994;28;19971;-83
2021/11/13 07:28:16;;;;;;;;;;;4.80;99.90;;;;;;5062124;28;20395;-82
2021/11/13 07:30:45;;;;;;;;;;;4.80;99.90;;;;;;5063003;28;19980;-84
2021/11/13 07:33:12;;;;;;;;;;;4.80;99.90;;;;;;5064198;28;20345;-81
2021/11/13 07:35:40;;;;;;;;;;;4.90;99.90;;;;;;5064908;28;19924;-83
2021/11/13 07:38:07;;;;;;;;;;;4.90;99.90;;;;;;5065668;28;19925;-81
2021/11/13 07:40:33;;;;;;;;;;;4.90;99.90;;;;;;5063425;28;19925;-83
2021/11/13 07:43:01;;;;;;;;;;;4.90;99.90;;;;;;5062806;28;20457;-82
2021/11/13 07:45:27;;;;;;;;;;;5.00;99.90;;;;;;5068234;28;19925;-81
2021/11/13 07:47:55;;;;;;;;;;;4.90;99.90;;;;;;5071581;28;19932;-81
2021/11/13 07:50:22;;;;;;;;;;;5.00;99.90;;;;;;5071718;28;19951;-80
2021/11/13 07:52:48;;;;;;;;;;;4.80;99.90;;;;;;5063363;28;20011;-81
2021/11/13 07:55:16;;;;;;;;;;;5.10;99.90;;;;;;5062711;28;19925;-80
2021/11/13 07:57:43;;;;;;;;;;;5.00;99.90;;;;;;5061372;28;19925;-82
2021/11/13 08:00:10;;;;;;;;;;;5.00;99.90;;;;;;5066347;28;19925;-82
2021/11/13 08:02:37;;;;;;;;;;;5.00;99.90;;;;;;5067287;28;19924;-82
2021/11/13 08:05:05;;;;;;;;;;;4.30;99.90;;;;;;5066036;28;19947;-83
2021/11/13 08:07:32;;;;;;;;;;;5.10;99.90;;;;;;5065272;28;19978;-82
2021/11/13 08:09:58;;;;;;;;;;;5.10;99.90;;;;;;5066223;28;20302;-82
2021/11/13 08:12:25;;;;;;;;;;;5.10;99.90;;;;;;5065730;28;19924;-83
2021/11/13 08:14:51;;;;;;;;;;;5.10;99.90;;;;;;5065822;28;19928;-81
2021/11/13 08:17:18;;;;;;;;;;;5.10;99.90;;;;;;5073231;28;19925;-81
2021/11/13 08:19:44;;;;;;;;;;;5.10;99.90;;;;;;5074503;28;19932;-81
2021/11/13 08:22:12;;;;;;;;;;;5.10;99.90;;;;;;5072833;28;19929;-83
2021/11/13 08:24:39;;;;;;;;;;;5.10;99.90;;;;;;5065786;28;19978;-80
2021/11/13 08:27:05;;;;;;;;;;;5.10;99.90;;;;;;5070437;28;19925;-82
2021/11/13 08:29:32;;;;;;;;;;;5.10;99.90;;;;;;5068083;28;19975;-80
2021/11/13 08:31:59;;;;;;;;;;;5.10;99.90;;;;;;5066638;28;19925;-82
2021/11/13 08:34:25;;;;;;;;;;;5.10;99.90;;;;;;5061220;28;19971;-80
2021/11/13 08:36:52;;;;;;;;;;;5.20;99.90;;;;;;5060068;28;19929;-81
2021/11/13 08:39:20;;;;;;;;;;;5.20;99.90;;;;;;5062666;28;19947;-80
2021/11/13 08:41:46;;;;;;;;;;;5.20;99.90;;;;;;5077164;28;19925;-81
2021/11/13 08:44:13;;;;;;;;;;;5.30;99.90;;;;;;5063209;28;19925;-80
2021/11/13 08:46:39;;;;;;;;;;;5.40;99.90;;;;;;5061016;28;19924;-80
2021/11/13 08:49:06;;;;;;;;;;;5.40;99.90;;;;;;5060837;28;19925;-81
2021/11/13 08:51:35;;;;;;;;;;;5.50;99.90;;;;;;5061774;28;20403;-81
2021/11/13 08:54:03;;;;;;;;;;;5.50;99.90;;;;;;5061485;28;19932;-81
2021/11/13 08:56:31;;;;;;;;;;;5.60;99.90;;;;;;5061610;28;19925;-83
2021/11/13 08:58:58;;;;;;;;;;;5.70;99.90;;;;;;5060897;28;19924;-79
2021/11/13 09:01:26;;;;;;;;;;;5.50;99.90;;;;;;5063163;28;20383;-82
2021/11/13 09:03:53;;;;;;;;;;;5.50;99.90;;;;;;5061931;28;19924;-82
2021/11/13 09:06:21;;;;;;;;;;;5.50;99.90;;;;;;5070653;28;19936;-82
2021/11/13 09:08:48;;;;;;;;;;;5.60;99.90;;;;;;5078076;28;19913;-81
2021/11/13 09:11:17;;;;;;;;;;;5.60;99.90;;;;;;5078049;28;19987;-80
2021/11/13 09:13:46;;;;;;;;;;;5.60;99.90;;;;;;5078980;28;19939;-83
2021/11/13 09:16:13;;;;;;;;;;;5.60;99.90;;;;;;5078143;28;19924;-80
2021/11/13 09:18:39;;;;;;;;;;;5.70;99.90;;;;;;5073213;28;19925;-81
2021/11/13 09:21:06;;;;;;;;;;;5.70;99.90;;;;;;5064761;28;20338;-83
2021/11/13 09:23:33;;;;;;;;;;;5.70;99.90;;;;;;5062214;28;19974;-80
2021/11/13 09:25:59;;;;;;;;;;;5.70;99.90;;;;;;5060719;28;19925;-82
2021/11/13 09:28:26;;;;;;;;;;;5.70;99.90;;;;;;5063104;28;19992;-79
2021/11/13 09:30:54;;;;;;;;;;;5.70;99.90;;;;;;5065258;28;19925;-82
2021/11/13 09:33:21;;;;;;;;;;;5.70;99.90;;;;;;5069487;28;19925;-81
2021/11/13 09:35:47;;;;;;;;;;;5.60;99.90;;;;;;5069792;28;19925;-79
2021/11/13 09:38:14;;;;;;;;;;;5.80;99.90;;;;;;5070103;28;19932;-80
2021/11/13 09:40:41;;;;;;;;;;;5.80;99.90;;;;;;5072393;28;20307;-79
2021/11/13 09:43:08;;;;;;;;;;;5.80;99.90;;;;;;5071026;28;20414;-80
2021/11/13 09:45:35;;;;;;;;;;;5.90;99.90;;;;;;5072525;28;19936;-79
2021/11/13 09:48:03;;;;;;;;;;;5.90;99.90;;;;;;5071465;28;20081;-80
2021/11/13 09:50:32;;;;;;;;;;;5.80;99.90;;;;;;5075729;28;19925;-80
2021/11/13 09:52:59;;;;;;;;;;;5.80;99.90;;;;;;5075789;28;19935;-79
2021/11/13 09:55:26;;;;;;;;;;;5.90;99.90;;;;;;5079005;28;19951;-80
2021/11/13 09:57:53;;;;;;;;;;;5.90;99.90;;;;;;5081718;28;19925;-80
2021/11/13 10:00:21;;;;;;;;;;;6.00;99.90;;;;;;5081640;28;19947;-80
2021/11/13 10:02:47;;;;;;;;;;;6.20;99.90;;;;;;5081998;28;19929;-80
2021/11/13 10:05:16;;;;;;;;;;;6.20;99.90;;;;;;5075551;28;19925;-80
2021/11/13 10:07:43;;;;;;;;;;;6.20;99.90;;;;;;5064414;28;19924;-80
2021/11/13 10:10:13;;;;;;;;;;;6.20;99.90;;;;;;5065966;28;19979;-81
2021/11/13 10:12:40;;;;;;;;;;;6.20;99.90;;;;;;5065543;28;19925;-79
2021/11/13 10:15:21;;;;;;;;;;;6.40;99.90;;;;;;5064127;28;19925;-81
2021/11/13 10:18:03;;;;;;;;;;;6.40;99.90;;;;;;5064263;28;19925;-80
2021/11/13 10:20:31;;;;;;;;;;;6.50;99.90;;;;;;5065922;28;19925;-83
2021/11/13 10:22:58;;;;;;;;;;;6.60;99.90;;;;;;5070012;28;19951;-79
2021/11/13 10:25:24;;;;;;;;;;;6.60;99.90;;;;;;5076786;28;20273;-82
2021/11/13 10:28:10;;;;;;;;;;;6.70;99.90;;;;;;5076085;28;19928;-84
2021/11/13 10:30:37;;;;;;;;;;;6.80;99.90;;;;;;5074947;28;19925;-82
2021/11/13 10:33:04;;;;;;;;;;;6.90;99.90;;;;;;5074183;28;19925;-82
2021/11/13 10:35:45;;;;;;;;;;;6.70;99.90;;;;;;5067011;28;19925;-85
2021/11/13 10:38:12;;;;;;;;;;;6.80;99.90;;;;;;5066157;28;19928;-84
2021/11/13 10:40:47;;;;;;;;;;;6.70;99.90;;;;;;5065335;28;19925;-83
2021/11/13 10:43:14;;;;;;;;;;;6.80;99.90;;;;;;5065406;28;19932;-82
2021/11/13 10:45:40;;;;;;;;;;;6.90;99.90;;;;;;5067833;28;19924;-83
2021/11/13 10:48:19;;;;;;;;;;;6.80;99.90;;;;;;5067237;28;19925;-81
2021/11/13 10:50:46;;;;;;;;;;;6.80;99.90;;;;;;5076245;28;19947;-84
2021/11/13 10:53:13;;;;;;;;;;;6.90;99.90;;;;;;5069893;28;19925;-84
2021/11/13 10:55:41;;;;;;;;;;;6.90;99.90;;;;;;5065618;28;19932;-83
2021/11/13 10:58:26;;;;;;;;;;;6.90;99.90;;;;;;5066513;28;20392;-83
2021/11/13 11:00:52;;;;;;;;;;;7.00;99.90;;;;;;5065180;28;20346;-83
2021/11/13 11:03:19;;;;;;;;;;;7.00;99.90;;;;;;5065199;28;19924;-82
2021/11/13 11:05:47;;;;;;;;;;;6.80;99.90;;;;;;5065717;28;19978;-82
2021/11/13 11:08:24;;;;;;;;;;;7.00;99.90;;;;;;5064608;28;19932;-81
2021/11/13 11:10:51;;;;;;;;;;;7.10;99.90;;;;;;5065444;28;19924;-83
2021/11/13 11:13:17;;;;;;;;;;;7.30;99.90;;;;;;5065262;28;19929;-84
2021/11/13 11:15:43;;;;;;;;;;;7.20;99.90;;;;;;5065311;28;19932;-84
2021/11/13 11:18:10;;;;;;;;;;;7.10;99.90;;;;;;5089284;22;19925;-83
2021/11/13 11:20:43;;;;;;;;;;;7.10;99.90;;;;;;5067971;28;19931;-83
2021/11/13 11:23:15;;;;;;;;;;;7.10;99.90;;;;;;5067897;28;19925;-83
2021/11/13 11:25:42;;;;;;;;;;;7.10;99.90;;;;;;5070111;28;19925;-83
2021/11/13 11:28:08;;;;;;;;;;;7.20;99.90;;;;;;5068372;28;19925;-83
2021/11/13 11:30:48;;;;;;;;;;;7.30;99.90;;;;;;5067991;28;19935;-83
2021/11/13 11:33:14;;;;;;;;;;;7.30;99.90;;;;;;5073668;28;19913;-85
2021/11/13 11:35:41;;;;;;;;;;;7.30;99.90;;;;;;5071835;28;19933;-83
2021/11/13 11:38:11;;;;;;;;;;;7.30;99.90;;;;;;5071107;28;19968;-84
2021/11/13 11:40:40;;;;;;;;;;;7.40;99.90;;;;;;5074344;28;19992;-82
2021/11/13 11:43:08;;;;;;;;;;;7.40;99.90;;;;;;5077800;28;19951;-84
2021/11/13 11:45:39;;;;;;;;;;;7.40;99.90;;;;;;5078702;28;19909;-84
2021/11/13 11:48:07;;;;;;;;;;;7.30;99.90;;;;;;5077130;28;19925;-83
2021/11/13 11:50:34;;;;;;;;;;;7.30;99.90;;;;;;5073333;28;20363;-84
2021/11/13 11:53:05;;;;;;;;;;;7.40;99.90;;;;;;5072533;28;19929;-84
2021/11/13 11:55:32;;;;;;;;;;;7.50;99.90;;;;;;5072690;28;19928;-86
2021/11/13 11:58:01;;;;;;;;;;;7.70;99.90;;;;;;5072402;28;19924;-84
2021/11/13 12:00:28;;;;;;;;;;;7.60;99.90;;;;;;5073232;28;19925;-84
2021/11/13 12:02:57;;;;;;;;;;;8.10;99.90;;;;;;5076117;28;19936;-83
2021/11/13 12:05:25;;;;;;;;;;;7.70;99.90;;;;;;5077508;28;19931;-83
2021/11/13 12:07:53;;;;;;;;;;;7.70;99.90;;;;;;5074595;28;19981;-83
2021/11/13 12:10:22;;;;;;;;;;;7.70;99.90;;;;;;5077593;28;19925;-83
2021/11/13 12:13:02;;;;;;;;;;;7.70;99.90;;;;;;5077176;28;19951;-84
2021/11/13 12:15:29;;;;;;;;;;;7.70;99.90;;;;;;5074211;28;19971;-84
2021/11/13 12:17:57;;;;;;;;;;;7.70;99.90;;;;;;5073014;28;19924;-84
2021/11/13 12:20:31;;;;;;;;;;;7.70;99.90;;;;;;5065310;28;19992;-84
2021/11/13 12:23:03;;;;;;;;;;;7.70;99.90;;;;;;5066860;28;19924;-83
2021/11/13 12:25:31;;;;;;;;;;;7.70;99.90;;;;;;5068323;28;19951;-83
2021/11/13 12:28:06;;;;;;;;;;;7.70;99.90;;;;;;5066796;28;19970;-83
2021/11/13 12:30:40;;;;;;;;;;;7.70;99.90;;;;;;5070716;28;19924;-83
2021/11/13 12:33:38;;;;;;;;;;;7.70;99.90;;;;;;5072170;28;19924;-83
2021/11/13 12:36:06;;;;;;;;;;;7.70;99.90;;;;;;5071771;28;20330;-84
2021/11/13 12:38:34;;;;;;;;;;;7.80;99.90;;;;;;5068165;28;19967;-84
2021/11/13 12:41:05;;;;;;;;;;;7.80;99.90;;;;;;5068802;28;19924;-85
2021/11/13 12:43:46;;;;;;;;;;;7.90;99.90;;;;;;5069481;28;20000;-83
2021/11/13 12:46:24;;;;;;;;;;;8.00;99.90;;;;;;5073200;28;19931;-83
2021/11/13 12:48:51;;;;;;;;;;;7.80;99.90;;;;;;5072156;28;19928;-83
2021/11/13 12:51:18;;;;;;;;;;;7.80;99.90;;;;;;5071869;28;19924;-84
2021/11/13 12:53:52;;;;;;;;;;;7.70;99.90;;;;;;5072218;28;20349;-83
2021/11/13 12:56:36;;;;;;;;;;;7.70;99.90;;;;;;5073053;28;19947;-84
2021/11/13 12:59:03;;;;;;;;;;;7.70;99.90;;;;;;5070397;28;19925;-84
2021/11/13 13:01:33;;;;;;;;;;;7.70;99.90;;;;;;5071726;28;19963;-84
2021/11/13 13:04:00;;;;;;;;;;;7.80;99.90;;;;;;5075228;28;19925;-82
2021/11/13 13:06:27;;;;;;;;;;;7.80;99.90;;;;;;5074769;28;19925;-84
2021/11/13 13:09:00;;;;;;;;;;;7.80;99.90;;;;;;5075088;28;19913;-83
2021/11/13 13:11:27;;;;;;;;;;;7.60;99.90;;;;;;5075760;28;19912;-83
2021/11/13 13:13:53;;;;;;;;;;;7.90;99.90;;;;;;5076675;28;19928;-82
2021/11/13 13:16:20;;;;;;;;;;;7.90;99.90;;;;;;5075463;28;19925;-83
2021/11/13 13:18:48;;;;;;;;;;;8.00;99.90;;;;;;5075935;28;19947;-83
2021/11/13 13:21:16;;;;;;;;;;;8.00;99.90;;;;;;5079120;28;19925;-84
2021/11/13 13:23:44;;;;;;;;;;;8.00;99.90;;;;;;5079505;28;19925;-83
2021/11/13 13:26:10;;;;;;;;;;;8.00;99.90;;;;;;5074808;28;19933;-83
2021/11/13 13:28:37;;;;;;;;;;;8.10;99.90;;;;;;5075406;28;19925;-83
2021/11/13 13:31:06;;;;;;;;;;;8.10;99.90;;;;;;5066639;28;19925;-83
2021/11/13 13:33:33;;;;;;;;;;;8.20;99.90;;;;;;5064678;28;20023;-83
2021/11/13 13:36:01;;;;;;;;;;;8.30;99.90;;;;;;5076601;28;19947;-81
2021/11/13 13:38:27;;;;;;;;;;;8.40;99.90;;;;;;5079358;28;19947;-84
2021/11/13 13:40:55;;;;;;;;;;;8.40;99.90;;;;;;5081653;28;19913;-83
2021/11/13 13:43:27;;;;;;;;;;;8.40;99.90;;;;;;5078963;28;19916;-84
2021/11/13 13:45:56;;;;;;;;;;;8.40;99.90;;;;;;5077468;28;19924;-84
2021/11/13 13:48:24;;;;;;;;;;;8.50;99.90;;;;;;5069581;28;19929;-84
2021/11/13 13:50:52;;;;;;;;;;;8.40;99.90;;;;;;5067407;28;19952;-83
2021/11/13 13:53:20;;;;;;;;;;;8.40;99.90;;;;;;5066500;28;19924;-83
2021/11/13 13:55:47;;;;;;;;;;;8.30;99.90;;;;;;5069003;28;19925;-83
2021/11/13 13:58:14;;;;;;;;;;;8.30;99.90;;;;;;5073428;28;19948;-83
2021/11/13 14:00:45;;;;;;;;;;;8.30;99.90;;;;;;5072688;28;19929;-85
2021/11/13 14:03:12;;;;;;;;;;;8.30;99.90;;;;;;5071861;28;19925;-83
2021/11/13 14:05:39;;;;;;;;;;;8.30;99.90;;;;;;5077484;28;19985;-83
2021/11/13 14:08:07;;;;;;;;;;;8.20;99.90;;;;;;5079421;28;19925;-84
2021/11/13 14:10:42;;;;;;;;;;;8.20;99.90;;;;;;5077795;28;20379;-84
2021/11/13 14:13:09;;;;;;;;;;;8.20;99.90;;;;;;5075352;28;19925;-84
2021/11/13 14:15:37;;;;;;;;;;;8.20;99.90;;;;;;5072612;28;19928;-84
2021/11/13 14:18:06;;;;;;;;;;;8.30;99.90;;;;;;5073131;28;19925;-83
2021/11/13 14:20:34;;;;;;;;;;;8.30;99.90;;;;;;5078319;28;19923;-83
2021/11/13 14:23:03;;;;;;;;;;;8.20;99.90;;;;;;5077911;28;19913;-84
2021/11/13 14:25:30;;;;;;;;;;;8.30;99.90;;;;;;5076879;28;19979;-84
2021/11/13 14:27:58;;;;;;;;;;;8.30;99.90;;;;;;5074127;28;19974;-83
2021/11/13 14:30:25;;;;;;;;;;;8.30;99.90;;;;;;5071092;28;19925;-84
2021/11/13 14:32:54;;;;;;;;;;;8.10;99.90;;;;;;5069516;28;19925;-83
2021/11/13 14:35:22;;;;;;;;;;;8.30;99.90;;;;;;5068477;28;19924;-83